Skip Navigation LinksHome page > Weather > Current weather Skip Navigation Links

Current Weather

Bom Jesus Da Lapa, Brazil

For information only: do not use for flight planning or navigation.
Latest weather
Observation time Saturday, April 18, 2015 9:00 AM BRT
Local time Saturday, April 18, 2015 10:10 AM BRT
Flight conditions Visual Meteorological Conditions
Winds
Wind direction East-Northeast (60°)
Wind speed 7 mph
Visibility 6.2 mi.
Sky condition
Ceiling unlimited
Sky clear
Temperature 84°F
Dewpoint 70°F
Altimeter 30.03 in.Hg
Derived measurements
Relative humidity 62%
Heat index 88°F
Density altitude 3261 ft.
Remarks
Ceiling and visibility OK.
METAR SBLP 181200Z 06006KT CAVOK 29/21 Q1017

Settings

Location code

InnerDrive.Weather 4.0.5567.0 Release CLR 4.0.30319.34014
Copyright ©2015 Inner Drive Technology. All rights reserved. Portions Copyright ©1986-2015 David Braverman.

Find weather

Site navigation


Skip Navigation Links

Place info

Page info

PayPal - The safer, easier way to pay online!

Return home.

Copyright ©2015 Inner Drive Technology. Purveyors of fine, hand-crafted computer software. Page printed 2015-04-18T13:10:02 UTC.